sensor_id;sensor_type;location;lat;lon;timestamp;P1;durP1;ratioP1;P2;durP2;ratioP2
61391;SDS011;47261;52.892;5.738;2022-08-21T00:00:05;11.50;;;3.90;;
61391;SDS011;47261;52.892;5.738;2022-08-21T00:02:34;10.37;;;3.80;;
61391;SDS011;47261;52.892;5.738;2022-08-21T00:05:00;11.85;;;4.32;;
61391;SDS011;47261;52.892;5.738;2022-08-21T00:07:27;13.80;;;4.00;;
61391;SDS011;47261;52.892;5.738;2022-08-21T00:09:52;13.00;;;4.10;;
61391;SDS011;47261;52.892;5.738;2022-08-21T00:12:18;14.98;;;3.97;;
61391;SDS011;47261;52.892;5.738;2022-08-21T00:14:44;12.05;;;4.22;;
61391;SDS011;47261;52.892;5.738;2022-08-21T00:17:10;10.80;;;4.27;;
61391;SDS011;47261;52.892;5.738;2022-08-21T00:19:36;11.02;;;4.13;;
61391;SDS011;47261;52.892;5.738;2022-08-21T00:22:01;12.13;;;3.70;;
61391;SDS011;47261;52.892;5.738;2022-08-21T00:24:27;16.23;;;4.22;;
61391;SDS011;47261;52.892;5.738;2022-08-21T00:26:52;14.57;;;4.50;;
61391;SDS011;47261;52.892;5.738;2022-08-21T00:29:18;9.93;;;3.70;;
61391;SDS011;47261;52.892;5.738;2022-08-21T00:31:44;11.77;;;3.70;;
61391;SDS011;47261;52.892;5.738;2022-08-21T00:34:11;14.15;;;4.03;;
61391;SDS011;47261;52.892;5.738;2022-08-21T00:36:37;12.43;;;4.63;;
61391;SDS011;47261;52.892;5.738;2022-08-21T00:39:04;12.82;;;4.03;;
61391;SDS011;47261;52.892;5.738;2022-08-21T00:41:31;10.67;;;4.23;;
61391;SDS011;47261;52.892;5.738;2022-08-21T00:43:57;16.23;;;4.93;;
61391;SDS011;47261;52.892;5.738;2022-08-21T00:46:23;11.82;;;4.22;;
61391;SDS011;47261;52.892;5.738;2022-08-21T00:48:49;14.95;;;4.28;;
61391;SDS011;47261;52.892;5.738;2022-08-21T00:51:16;13.40;;;4.53;;
61391;SDS011;47261;52.892;5.738;2022-08-21T00:53:48;13.80;;;4.13;;
61391;SDS011;47261;52.892;5.738;2022-08-21T00:56:18;11.23;;;4.35;;
61391;SDS011;47261;52.892;5.738;2022-08-21T00:58:45;11.85;;;4.82;;
61391;SDS011;47261;52.892;5.738;2022-08-21T01:01:12;14.23;;;4.30;;
61391;SDS011;47261;52.892;5.738;2022-08-21T01:03:38;12.95;;;4.72;;
61391;SDS011;47261;52.892;5.738;2022-08-21T01:06:04;14.93;;;4.47;;
61391;SDS011;47261;52.892;5.738;2022-08-21T01:08:31;15.68;;;4.55;;
61391;SDS011;47261;52.892;5.738;2022-08-21T01:10:57;12.50;;;5.63;;
61391;SDS011;47261;52.892;5.738;2022-08-21T01:13:25;11.90;;;4.03;;
61391;SDS011;47261;52.892;5.738;2022-08-21T01:15:52;14.75;;;4.10;;
61391;SDS011;47261;52.892;5.738;2022-08-21T01:18:20;13.02;;;4.35;;
61391;SDS011;47261;52.892;5.738;2022-08-21T01:23:35;13.18;;;4.90;;
61391;SDS011;47261;52.892;5.738;2022-08-21T01:26:03;14.13;;;5.10;;
61391;SDS011;47261;52.892;5.738;2022-08-21T01:28:31;17.30;;;4.80;;
61391;SDS011;47261;52.892;5.738;2022-08-21T01:31:01;15.95;;;4.90;;
61391;SDS011;47261;52.892;5.738;2022-08-21T01:33:30;13.20;;;5.10;;
61391;SDS011;47261;52.892;5.738;2022-08-21T01:35:56;15.47;;;5.80;;
61391;SDS011;47261;52.892;5.738;2022-08-21T01:38:21;13.35;;;5.50;;
61391;SDS011;47261;52.892;5.738;2022-08-21T01:40:47;16.50;;;5.32;;
61391;SDS011;47261;52.892;5.738;2022-08-21T01:43:13;16.87;;;5.07;;
61391;SDS011;47261;52.892;5.738;2022-08-21T01:45:39;14.82;;;5.72;;
61391;SDS011;47261;52.892;5.738;2022-08-21T01:48:05;17.08;;;5.97;;
61391;SDS011;47261;52.892;5.738;2022-08-21T01:50:31;19.73;;;5.63;;
61391;SDS011;47261;52.892;5.738;2022-08-21T01:52:56;14.52;;;5.40;;
61391;SDS011;47261;52.892;5.738;2022-08-21T01:55:22;15.67;;;5.50;;
61391;SDS011;47261;52.892;5.738;2022-08-21T01:57:48;16.27;;;5.30;;
61391;SDS011;47261;52.892;5.738;2022-08-21T02:00:16;19.75;;;5.40;;
61391;SDS011;47261;52.892;5.738;2022-08-21T02:02:43;17.73;;;4.93;;
61391;SDS011;47261;52.892;5.738;2022-08-21T02:05:10;16.25;;;5.10;;
61391;SDS011;47261;52.892;5.738;2022-08-21T02:07:37;19.65;;;5.43;;
61391;SDS011;47261;52.892;5.738;2022-08-21T02:10:05;15.88;;;5.35;;
61391;SDS011;47261;52.892;5.738;2022-08-21T02:12:34;12.47;;;4.70;;
61391;SDS011;47261;52.892;5.738;2022-08-21T02:14:59;11.82;;;5.03;;
61391;SDS011;47261;52.892;5.738;2022-08-21T02:17:25;15.53;;;4.87;;
61391;SDS011;47261;52.892;5.738;2022-08-21T02:19:51;15.83;;;5.83;;
61391;SDS011;47261;52.892;5.738;2022-08-21T02:22:17;15.25;;;5.18;;
61391;SDS011;47261;52.892;5.738;2022-08-21T02:24:42;13.53;;;5.53;;
61391;SDS011;47261;52.892;5.738;2022-08-21T02:27:08;15.15;;;6.22;;
61391;SDS011;47261;52.892;5.738;2022-08-21T02:29:34;16.63;;;5.10;;
61391;SDS011;47261;52.892;5.738;2022-08-21T02:32:00;16.52;;;5.65;;
61391;SDS011;47261;52.892;5.738;2022-08-21T02:34:25;14.47;;;5.60;;
61391;SDS011;47261;52.892;5.738;2022-08-21T02:36:51;18.92;;;5.38;;
61391;SDS011;47261;52.892;5.738;2022-08-21T02:39:16;14.33;;;5.57;;
61391;SDS011;47261;52.892;5.738;2022-08-21T02:41:42;13.77;;;5.73;;
61391;SDS011;47261;52.892;5.738;2022-08-21T02:44:08;17.52;;;6.43;;
61391;SDS011;47261;52.892;5.738;2022-08-21T02:46:34;21.67;;;6.78;;
61391;SDS011;47261;52.892;5.738;2022-08-21T02:48:59;16.67;;;5.80;;
61391;SDS011;47261;52.892;5.738;2022-08-21T02:51:25;16.93;;;7.13;;
61391;SDS011;47261;52.892;5.738;2022-08-21T02:53:51;19.27;;;6.90;;
61391;SDS011;47261;52.892;5.738;2022-08-21T02:56:17;17.80;;;6.77;;
61391;SDS011;47261;52.892;5.738;2022-08-21T02:58:49;20.50;;;6.80;;
61391;SDS011;47261;52.892;5.738;2022-08-21T03:01:17;18.60;;;6.68;;
61391;SDS011;47261;52.892;5.738;2022-08-21T03:03:44;15.10;;;6.85;;
61391;SDS011;47261;52.892;5.738;2022-08-21T03:06:12;15.90;;;6.20;;
61391;SDS011;47261;52.892;5.738;2022-08-21T03:08:40;13.48;;;6.63;;
61391;SDS011;47261;52.892;5.738;2022-08-21T03:11:05;15.27;;;7.43;;
61391;SDS011;47261;52.892;5.738;2022-08-21T03:13:31;15.95;;;6.72;;
61391;SDS011;47261;52.892;5.738;2022-08-21T03:15:57;18.93;;;7.20;;
61391;SDS011;47261;52.892;5.738;2022-08-21T03:18:23;24.30;;;7.83;;
61391;SDS011;47261;52.892;5.738;2022-08-21T03:20:49;19.27;;;7.30;;
61391;SDS011;47261;52.892;5.738;2022-08-21T03:23:15;20.13;;;7.30;;
61391;SDS011;47261;52.892;5.738;2022-08-21T03:25:43;17.15;;;7.03;;
61391;SDS011;47261;52.892;5.738;2022-08-21T03:28:11;14.27;;;6.05;;
61391;SDS011;47261;52.892;5.738;2022-08-21T03:30:40;18.23;;;7.25;;
61391;SDS011;47261;52.892;5.738;2022-08-21T03:33:07;18.00;;;6.75;;
61391;SDS011;47261;52.892;5.738;2022-08-21T03:35:32;20.90;;;6.43;;
61391;SDS011;47261;52.892;5.738;2022-08-21T03:37:58;14.00;;;6.73;;
61391;SDS011;47261;52.892;5.738;2022-08-21T03:40:23;20.15;;;7.13;;
61391;SDS011;47261;52.892;5.738;2022-08-21T03:42:49;18.03;;;6.50;;
61391;SDS011;47261;52.892;5.738;2022-08-21T03:45:16;17.55;;;6.55;;
61391;SDS011;47261;52.892;5.738;2022-08-21T03:50:26;14.63;;;6.63;;
61391;SDS011;47261;52.892;5.738;2022-08-21T03:52:55;15.65;;;6.40;;
61391;SDS011;47261;52.892;5.738;2022-08-21T03:55:21;20.73;;;7.27;;
61391;SDS011;47261;52.892;5.738;2022-08-21T03:57:47;19.95;;;6.57;;
61391;SDS011;47261;52.892;5.738;2022-08-21T04:00:13;19.00;;;6.43;;
61391;SDS011;47261;52.892;5.738;2022-08-21T04:02:40;12.83;;;6.23;;
61391;SDS011;47261;52.892;5.738;2022-08-21T04:05:07;21.10;;;6.65;;
61391;SDS011;47261;52.892;5.738;2022-08-21T04:07:33;22.90;;;6.90;;
61391;SDS011;47261;52.892;5.738;2022-08-21T04:09:59;18.75;;;6.10;;
61391;SDS011;47261;52.892;5.738;2022-08-21T04:12:24;17.73;;;7.00;;
61391;SDS011;47261;52.892;5.738;2022-08-21T04:14:50;20.25;;;6.97;;
61391;SDS011;47261;52.892;5.738;2022-08-21T04:17:18;22.52;;;6.80;;
61391;SDS011;47261;52.892;5.738;2022-08-21T04:19:44;19.43;;;7.50;;
61391;SDS011;47261;52.892;5.738;2022-08-21T04:22:09;17.60;;;6.47;;
61391;SDS011;47261;52.892;5.738;2022-08-21T04:24:35;14.23;;;6.35;;
61391;SDS011;47261;52.892;5.738;2022-08-21T04:27:01;16.77;;;6.70;;
61391;SDS011;47261;52.892;5.738;2022-08-21T04:29:26;16.52;;;6.55;;
61391;SDS011;47261;52.892;5.738;2022-08-21T04:31:52;20.13;;;6.37;;
61391;SDS011;47261;52.892;5.738;2022-08-21T04:34:18;15.40;;;6.97;;
61391;SDS011;47261;52.892;5.738;2022-08-21T04:36:44;17.60;;;6.23;;
61391;SDS011;47261;52.892;5.738;2022-08-21T04:39:09;17.80;;;6.75;;
61391;SDS011;47261;52.892;5.738;2022-08-21T04:41:35;23.73;;;6.77;;
61391;SDS011;47261;52.892;5.738;2022-08-21T04:44:02;18.05;;;6.93;;
61391;SDS011;47261;52.892;5.738;2022-08-21T04:46:28;19.63;;;6.82;;
61391;SDS011;47261;52.892;5.738;2022-08-21T04:48:53;19.42;;;6.07;;
61391;SDS011;47261;52.892;5.738;2022-08-21T04:51:24;12.60;;;5.67;;
61391;SDS011;47261;52.892;5.738;2022-08-21T04:53:59;18.00;;;6.43;;
61391;SDS011;47261;52.892;5.738;2022-08-21T04:56:31;16.05;;;6.07;;
61391;SDS011;47261;52.892;5.738;2022-08-21T04:59:03;17.75;;;6.07;;
61391;SDS011;47261;52.892;5.738;2022-08-21T05:01:32;20.02;;;5.10;;
61391;SDS011;47261;52.892;5.738;2022-08-21T05:04:00;11.40;;;5.03;;
61391;SDS011;47261;52.892;5.738;2022-08-21T05:06:30;14.82;;;5.78;;
61391;SDS011;47261;52.892;5.738;2022-08-21T05:08:58;14.95;;;5.60;;
61391;SDS011;47261;52.892;5.738;2022-08-21T05:11:26;22.58;;;6.05;;
61391;SDS011;47261;52.892;5.738;2022-08-21T05:13:51;22.23;;;7.07;;
61391;SDS011;47261;52.892;5.738;2022-08-21T05:16:17;18.67;;;5.80;;
61391;SDS011;47261;52.892;5.738;2022-08-21T05:18:43;15.00;;;5.33;;
61391;SDS011;47261;52.892;5.738;2022-08-21T05:21:08;16.70;;;6.00;;
61391;SDS011;47261;52.892;5.738;2022-08-21T05:23:34;14.10;;;4.97;;
61391;SDS011;47261;52.892;5.738;2022-08-21T05:26:00;21.52;;;5.65;;
61391;SDS011;47261;52.892;5.738;2022-08-21T05:28:26;15.38;;;5.55;;
61391;SDS011;47261;52.892;5.738;2022-08-21T05:30:52;14.23;;;5.20;;
61391;SDS011;47261;52.892;5.738;2022-08-21T05:33:18;14.02;;;4.50;;
61391;SDS011;47261;52.892;5.738;2022-08-21T05:35:44;16.75;;;4.78;;
61391;SDS011;47261;52.892;5.738;2022-08-21T05:38:10;15.07;;;5.00;;
61391;SDS011;47261;52.892;5.738;2022-08-21T05:40:35;17.73;;;4.97;;
61391;SDS011;47261;52.892;5.738;2022-08-21T05:43:01;15.90;;;4.40;;
61391;SDS011;47261;52.892;5.738;2022-08-21T05:45:28;10.10;;;4.20;;
61391;SDS011;47261;52.892;5.738;2022-08-21T05:47:55;14.07;;;4.70;;
61391;SDS011;47261;52.892;5.738;2022-08-21T05:50:21;14.33;;;4.83;;
61391;SDS011;47261;52.892;5.738;2022-08-21T05:52:48;11.77;;;4.20;;
61391;SDS011;47261;52.892;5.738;2022-08-21T05:55:13;13.70;;;4.17;;
61391;SDS011;47261;52.892;5.738;2022-08-21T05:57:39;14.65;;;4.75;;
61391;SDS011;47261;52.892;5.738;2022-08-21T06:00:06;16.90;;;4.80;;
61391;SDS011;47261;52.892;5.738;2022-08-21T06:02:37;14.50;;;3.60;;
61391;SDS011;47261;52.892;5.738;2022-08-21T06:05:03;18.70;;;4.95;;
61391;SDS011;47261;52.892;5.738;2022-08-21T06:07:29;12.45;;;4.30;;
61391;SDS011;47261;52.892;5.738;2022-08-21T06:09:55;11.90;;;4.77;;
61391;SDS011;47261;52.892;5.738;2022-08-21T06:12:21;13.85;;;4.10;;
61391;SDS011;47261;52.892;5.738;2022-08-21T06:14:46;16.57;;;4.60;;
61391;SDS011;47261;52.892;5.738;2022-08-21T06:17:12;18.35;;;4.72;;
61391;SDS011;47261;52.892;5.738;2022-08-21T06:19:39;15.27;;;4.68;;
61391;SDS011;47261;52.892;5.738;2022-08-21T06:22:05;12.57;;;4.03;;
61391;SDS011;47261;52.892;5.738;2022-08-21T06:24:31;9.13;;;2.85;;
61391;SDS011;47261;52.892;5.738;2022-08-21T06:26:57;15.90;;;4.53;;
61391;SDS011;47261;52.892;5.738;2022-08-21T06:29:23;15.13;;;4.30;;
61391;SDS011;47261;52.892;5.738;2022-08-21T06:31:49;15.38;;;4.65;;
61391;SDS011;47261;52.892;5.738;2022-08-21T06:34:16;16.50;;;4.63;;
61391;SDS011;47261;52.892;5.738;2022-08-21T06:36:42;14.00;;;4.50;;
61391;SDS011;47261;52.892;5.738;2022-08-21T06:39:08;15.90;;;4.88;;
61391;SDS011;47261;52.892;5.738;2022-08-21T06:41:34;13.70;;;4.70;;
61391;SDS011;47261;52.892;5.738;2022-08-21T06:44:00;17.60;;;4.85;;
61391;SDS011;47261;52.892;5.738;2022-08-21T06:46:26;16.33;;;3.90;;
61391;SDS011;47261;52.892;5.738;2022-08-21T06:48:53;15.70;;;4.60;;
61391;SDS011;47261;52.892;5.738;2022-08-21T06:51:19;13.73;;;3.60;;
61391;SDS011;47261;52.892;5.738;2022-08-21T06:53:45;10.10;;;3.90;;
61391;SDS011;47261;52.892;5.738;2022-08-21T06:56:11;11.50;;;4.20;;
61391;SDS011;47261;52.892;5.738;2022-08-21T06:58:37;17.95;;;4.63;;
61391;SDS011;47261;52.892;5.738;2022-08-21T07:01:02;11.73;;;3.87;;
61391;SDS011;47261;52.892;5.738;2022-08-21T07:03:32;16.10;;;4.28;;
61391;SDS011;47261;52.892;5.738;2022-08-21T07:06:02;12.32;;;3.72;;
61391;SDS011;47261;52.892;5.738;2022-08-21T07:08:32;11.73;;;4.18;;
61391;SDS011;47261;52.892;5.738;2022-08-21T07:11:00;17.67;;;5.05;;
61391;SDS011;47261;52.892;5.738;2022-08-21T07:13:28;8.03;;;3.00;;
61391;SDS011;47261;52.892;5.738;2022-08-21T07:15:54;13.38;;;3.95;;
61391;SDS011;47261;52.892;5.738;2022-08-21T07:18:20;14.98;;;3.75;;
61391;SDS011;47261;52.892;5.738;2022-08-21T07:20:46;14.67;;;3.53;;
61391;SDS011;47261;52.892;5.738;2022-08-21T07:23:14;14.35;;;3.50;;
61391;SDS011;47261;52.892;5.738;2022-08-21T07:25:53;12.25;;;3.58;;
61391;SDS011;47261;52.892;5.738;2022-08-21T07:28:18;11.30;;;2.57;;
61391;SDS011;47261;52.892;5.738;2022-08-21T07:30:44;6.90;;;1.87;;
61391;SDS011;47261;52.892;5.738;2022-08-21T07:33:11;4.57;;;1.40;;
61391;SDS011;47261;52.892;5.738;2022-08-21T07:35:37;7.75;;;1.73;;
61391;SDS011;47261;52.892;5.738;2022-08-21T07:38:03;14.30;;;2.70;;
61391;SDS011;47261;52.892;5.738;2022-08-21T07:40:29;14.43;;;2.38;;
61391;SDS011;47261;52.892;5.738;2022-08-21T07:42:55;14.37;;;2.20;;
61391;SDS011;47261;52.892;5.738;2022-08-21T07:45:21;10.80;;;2.60;;
61391;SDS011;47261;52.892;5.738;2022-08-21T07:47:49;6.53;;;1.73;;
61391;SDS011;47261;52.892;5.738;2022-08-21T07:50:16;3.90;;;1.10;;
61391;SDS011;47261;52.892;5.738;2022-08-21T07:52:42;9.45;;;2.40;;
61391;SDS011;47261;52.892;5.738;2022-08-21T07:55:09;11.40;;;3.08;;
61391;SDS011;47261;52.892;5.738;2022-08-21T07:57:36;11.00;;;1.63;;
61391;SDS011;47261;52.892;5.738;2022-08-21T08:00:06;8.20;;;2.25;;
61391;SDS011;47261;52.892;5.738;2022-08-21T08:02:35;12.15;;;1.42;;
61391;SDS011;47261;52.892;5.738;2022-08-21T08:05:01;7.17;;;2.00;;
61391;SDS011;47261;52.892;5.738;2022-08-21T08:07:28;11.68;;;2.53;;
61391;SDS011;47261;52.892;5.738;2022-08-21T08:09:54;7.90;;;2.07;;
61391;SDS011;47261;52.892;5.738;2022-08-21T08:12:20;14.87;;;3.20;;
61391;SDS011;47261;52.892;5.738;2022-08-21T08:14:45;15.98;;;2.90;;
61391;SDS011;47261;52.892;5.738;2022-08-21T08:17:11;8.57;;;2.17;;
61391;SDS011;47261;52.892;5.738;2022-08-21T08:19:38;11.85;;;2.75;;
61391;SDS011;47261;52.892;5.738;2022-08-21T08:22:17;10.45;;;2.50;;
61391;SDS011;47261;52.892;5.738;2022-08-21T08:24:44;7.63;;;1.55;;
61391;SDS011;47261;52.892;5.738;2022-08-21T08:27:10;14.13;;;3.87;;
61391;SDS011;47261;52.892;5.738;2022-08-21T08:29:36;7.53;;;2.42;;
61391;SDS011;47261;52.892;5.738;2022-08-21T08:32:03;9.00;;;2.63;;
61391;SDS011;47261;52.892;5.738;2022-08-21T08:34:32;10.48;;;3.45;;
61391;SDS011;47261;52.892;5.738;2022-08-21T08:36:58;8.02;;;2.90;;
61391;SDS011;47261;52.892;5.738;2022-08-21T08:39:24;13.43;;;2.27;;
61391;SDS011;47261;52.892;5.738;2022-08-21T08:41:51;13.15;;;2.90;;
61391;SDS011;47261;52.892;5.738;2022-08-21T08:44:27;14.65;;;3.10;;
61391;SDS011;47261;52.892;5.738;2022-08-21T08:46:52;13.13;;;2.43;;
61391;SDS011;47261;52.892;5.738;2022-08-21T08:49:38;6.93;;;2.28;;
61391;SDS011;47261;52.892;5.738;2022-08-21T08:55:00;7.93;;;2.03;;
61391;SDS011;47261;52.892;5.738;2022-08-21T08:57:32;8.02;;;1.83;;
61391;SDS011;47261;52.892;5.738;2022-08-21T09:00:00;7.70;;;1.73;;
61391;SDS011;47261;52.892;5.738;2022-08-21T09:02:33;14.75;;;3.10;;
61391;SDS011;47261;52.892;5.738;2022-08-21T09:04:59;10.93;;;2.13;;
61391;SDS011;47261;52.892;5.738;2022-08-21T09:13:09;8.50;;;2.60;;
61391;SDS011;47261;52.892;5.738;2022-08-21T09:24:00;14.47;;;3.00;;
61391;SDS011;47261;52.892;5.738;2022-08-21T09:27:18;7.93;;;1.67;;
61391;SDS011;47261;52.892;5.738;2022-08-21T09:29:45;13.88;;;2.50;;
61391;SDS011;47261;52.892;5.738;2022-08-21T09:32:23;11.00;;;2.33;;
61391;SDS011;47261;52.892;5.738;2022-08-21T09:34:55;11.95;;;2.80;;
61391;SDS011;47261;52.892;5.738;2022-08-21T09:37:30;10.13;;;2.00;;
61391;SDS011;47261;52.892;5.738;2022-08-21T09:39:57;7.05;;;1.30;;
61391;SDS011;47261;52.892;5.738;2022-08-21T09:42:26;13.50;;;2.60;;
61391;SDS011;47261;52.892;5.738;2022-08-21T09:45:15;13.50;;;2.72;;
61391;SDS011;47261;52.892;5.738;2022-08-21T09:47:42;11.10;;;3.05;;
61391;SDS011;47261;52.892;5.738;2022-08-21T09:50:15;8.20;;;1.90;;
61391;SDS011;47261;52.892;5.738;2022-08-21T09:52:44;5.50;;;1.65;;
61391;SDS011;47261;52.892;5.738;2022-08-21T09:55:20;14.00;;;2.85;;
61391;SDS011;47261;52.892;5.738;2022-08-21T09:58:35;18.55;;;2.80;;
61391;SDS011;47261;52.892;5.738;2022-08-21T10:01:04;6.78;;;2.53;;
61391;SDS011;47261;52.892;5.738;2022-08-21T10:03:31;13.17;;;3.27;;
61391;SDS011;47261;52.892;5.738;2022-08-21T10:06:02;17.80;;;3.65;;
61391;SDS011;47261;52.892;5.738;2022-08-21T10:08:32;8.52;;;2.17;;
61391;SDS011;47261;52.892;5.738;2022-08-21T10:11:06;5.28;;;1.65;;
61391;SDS011;47261;52.892;5.738;2022-08-21T10:13:38;8.93;;;1.55;;
61391;SDS011;47261;52.892;5.738;2022-08-21T10:21:47;16.30;;;3.83;;
61391;SDS011;47261;52.892;5.738;2022-08-21T10:24:34;12.45;;;2.90;;
61391;SDS011;47261;52.892;5.738;2022-08-21T10:38:02;9.50;;;2.65;;
61391;SDS011;47261;52.892;5.738;2022-08-21T10:46:51;9.27;;;2.17;;
61391;SDS011;47261;52.892;5.738;2022-08-21T10:49:22;13.07;;;3.53;;
61391;SDS011;47261;52.892;5.738;2022-08-21T10:57:27;9.47;;;1.93;;
61391;SDS011;47261;52.892;5.738;2022-08-21T11:00:22;9.45;;;1.52;;
61391;SDS011;47261;52.892;5.738;2022-08-21T11:05:52;11.45;;;2.65;;
61391;SDS011;47261;52.892;5.738;2022-08-21T11:08:24;7.28;;;1.90;;
61391;SDS011;47261;52.892;5.738;2022-08-21T11:10:59;9.87;;;2.80;;
61391;SDS011;47261;52.892;5.738;2022-08-21T11:16:45;5.00;;;1.52;;
61391;SDS011;47261;52.892;5.738;2022-08-21T11:28:01;11.73;;;2.30;;
61391;SDS011;47261;52.892;5.738;2022-08-21T11:30:01;4.93;;;1.13;;
61391;SDS011;47261;52.892;5.738;2022-08-21T11:45:54;7.80;;;1.98;;
61391;SDS011;47261;52.892;5.738;2022-08-21T11:48:34;9.00;;;1.80;;
61391;SDS011;47261;52.892;5.738;2022-08-21T11:51:12;7.88;;;1.77;;
61391;SDS011;47261;52.892;5.738;2022-08-21T11:53:51;6.90;;;1.60;;
61391;SDS011;47261;52.892;5.738;2022-08-21T11:56:30;8.13;;;1.67;;
61391;SDS011;47261;52.892;5.738;2022-08-21T11:59:10;8.93;;;1.80;;
61391;SDS011;47261;52.892;5.738;2022-08-21T12:01:43;6.78;;;1.70;;
61391;SDS011;47261;52.892;5.738;2022-08-21T12:04:18;8.98;;;1.83;;
61391;SDS011;47261;52.892;5.738;2022-08-21T12:06:49;8.82;;;1.73;;
61391;SDS011;47261;52.892;5.738;2022-08-21T12:12:11;11.38;;;1.85;;
61391;SDS011;47261;52.892;5.738;2022-08-21T12:14:39;12.98;;;1.98;;
61391;SDS011;47261;52.892;5.738;2022-08-21T12:17:07;8.02;;;1.85;;
61391;SDS011;47261;52.892;5.738;2022-08-21T12:19:41;6.43;;;1.60;;
61391;SDS011;47261;52.892;5.738;2022-08-21T12:22:12;11.55;;;2.13;;
61391;SDS011;47261;52.892;5.738;2022-08-21T12:24:43;10.18;;;2.40;;
61391;SDS011;47261;52.892;5.738;2022-08-21T12:29:56;11.27;;;2.00;;
61391;SDS011;47261;52.892;5.738;2022-08-21T12:32:42;12.32;;;1.48;;
61391;SDS011;47261;52.892;5.738;2022-08-21T12:37:50;10.80;;;1.63;;
61391;SDS011;47261;52.892;5.738;2022-08-21T12:40:28;10.67;;;1.57;;
61391;SDS011;47261;52.892;5.738;2022-08-21T12:42:59;10.70;;;1.80;;
61391;SDS011;47261;52.892;5.738;2022-08-21T12:45:34;9.65;;;1.67;;
61391;SDS011;47261;52.892;5.738;2022-08-21T12:50:42;8.05;;;2.10;;
61391;SDS011;47261;52.892;5.738;2022-08-21T12:53:28;7.43;;;1.70;;
61391;SDS011;47261;52.892;5.738;2022-08-21T12:56:01;10.70;;;2.33;;
61391;SDS011;47261;52.892;5.738;2022-08-21T12:58:29;9.48;;;1.77;;
61391;SDS011;47261;52.892;5.738;2022-08-21T13:03:50;6.85;;;1.90;;
61391;SDS011;47261;52.892;5.738;2022-08-21T13:06:19;13.63;;;2.70;;
61391;SDS011;47261;52.892;5.738;2022-08-21T13:08:46;9.63;;;1.48;;
61391;SDS011;47261;52.892;5.738;2022-08-21T13:11:16;6.80;;;1.27;;
61391;SDS011;47261;52.892;5.738;2022-08-21T13:13:48;8.45;;;1.38;;
61391;SDS011;47261;52.892;5.738;2022-08-21T13:16:17;6.97;;;1.48;;
61391;SDS011;47261;52.892;5.738;2022-08-21T13:18:57;8.63;;;1.70;;
61391;SDS011;47261;52.892;5.738;2022-08-21T13:21:26;7.75;;;1.50;;
61391;SDS011;47261;52.892;5.738;2022-08-21T13:23:53;8.30;;;1.67;;
61391;SDS011;47261;52.892;5.738;2022-08-21T13:26:20;11.77;;;1.40;;
61391;SDS011;47261;52.892;5.738;2022-08-21T13:28:46;10.20;;;1.33;;
61391;SDS011;47261;52.892;5.738;2022-08-21T13:31:18;6.65;;;1.58;;
61391;SDS011;47261;52.892;5.738;2022-08-21T13:33:48;7.85;;;1.50;;
61391;SDS011;47261;52.892;5.738;2022-08-21T13:36:20;9.48;;;1.63;;
61391;SDS011;47261;52.892;5.738;2022-08-21T13:38:50;13.10;;;1.53;;
61391;SDS011;47261;52.892;5.738;2022-08-21T13:41:22;11.63;;;1.70;;
61391;SDS011;47261;52.892;5.738;2022-08-21T13:44:06;9.82;;;1.73;;
61391;SDS011;47261;52.892;5.738;2022-08-21T13:46:47;4.43;;;1.23;;
61391;SDS011;47261;52.892;5.738;2022-08-21T13:49:17;8.48;;;1.77;;
61391;SDS011;47261;52.892;5.738;2022-08-21T13:51:44;6.13;;;1.30;;
61391;SDS011;47261;52.892;5.738;2022-08-21T13:54:16;10.30;;;1.70;;
61391;SDS011;47261;52.892;5.738;2022-08-21T13:56:51;7.03;;;1.85;;
61391;SDS011;47261;52.892;5.738;2022-08-21T13:59:30;8.93;;;1.40;;
61391;SDS011;47261;52.892;5.738;2022-08-21T14:02:08;7.57;;;1.45;;
61391;SDS011;47261;52.892;5.738;2022-08-21T14:04:54;13.77;;;1.83;;
61391;SDS011;47261;52.892;5.738;2022-08-21T14:07:29;7.65;;;1.25;;
61391;SDS011;47261;52.892;5.738;2022-08-21T14:10:03;8.38;;;1.60;;
61391;SDS011;47261;52.892;5.738;2022-08-21T14:15:29;7.65;;;1.40;;
61391;SDS011;47261;52.892;5.738;2022-08-21T14:18:13;8.90;;;1.40;;
61391;SDS011;47261;52.892;5.738;2022-08-21T14:20:42;8.38;;;1.30;;
61391;SDS011;47261;52.892;5.738;2022-08-21T14:23:08;7.97;;;1.33;;
61391;SDS011;47261;52.892;5.738;2022-08-21T14:25:43;6.10;;;1.13;;
61391;SDS011;47261;52.892;5.738;2022-08-21T14:28:23;8.13;;;1.40;;
61391;SDS011;47261;52.892;5.738;2022-08-21T14:30:52;10.02;;;1.42;;
61391;SDS011;47261;52.892;5.738;2022-08-21T14:33:23;7.32;;;1.30;;
61391;SDS011;47261;52.892;5.738;2022-08-21T14:35:50;9.27;;;1.27;;
61391;SDS011;47261;52.892;5.738;2022-08-21T14:38:16;12.20;;;1.87;;
61391;SDS011;47261;52.892;5.738;2022-08-21T14:40:43;8.43;;;1.50;;
61391;SDS011;47261;52.892;5.738;2022-08-21T14:43:13;9.05;;;1.23;;
61391;SDS011;47261;52.892;5.738;2022-08-21T14:45:39;8.03;;;1.37;;
61391;SDS011;47261;52.892;5.738;2022-08-21T14:48:06;7.82;;;1.52;;
61391;SDS011;47261;52.892;5.738;2022-08-21T14:50:32;7.43;;;1.30;;
61391;SDS011;47261;52.892;5.738;2022-08-21T14:52:58;5.03;;;1.15;;
61391;SDS011;47261;52.892;5.738;2022-08-21T14:55:24;7.80;;;1.50;;
61391;SDS011;47261;52.892;5.738;2022-08-21T14:57:51;5.07;;;1.17;;
61391;SDS011;47261;52.892;5.738;2022-08-21T15:00:20;8.77;;;1.15;;
61391;SDS011;47261;52.892;5.738;2022-08-21T15:02:48;7.93;;;1.50;;
61391;SDS011;47261;52.892;5.738;2022-08-21T15:05:14;6.22;;;1.23;;
61391;SDS011;47261;52.892;5.738;2022-08-21T15:07:40;6.55;;;1.23;;
61391;SDS011;47261;52.892;5.738;2022-08-21T15:10:06;8.47;;;1.50;;
61391;SDS011;47261;52.892;5.738;2022-08-21T15:12:33;9.00;;;1.40;;
61391;SDS011;47261;52.892;5.738;2022-08-21T15:14:58;10.50;;;1.27;;
61391;SDS011;47261;52.892;5.738;2022-08-21T15:17:24;10.90;;;1.63;;
61391;SDS011;47261;52.892;5.738;2022-08-21T15:19:50;7.00;;;1.27;;
61391;SDS011;47261;52.892;5.738;2022-08-21T15:22:16;10.25;;;1.38;;
61391;SDS011;47261;52.892;5.738;2022-08-21T15:24:41;6.53;;;1.10;;
61391;SDS011;47261;52.892;5.738;2022-08-21T15:27:07;5.95;;;1.15;;
61391;SDS011;47261;52.892;5.738;2022-08-21T15:29:35;9.85;;;1.33;;
61391;SDS011;47261;52.892;5.738;2022-08-21T15:32:14;8.10;;;1.60;;
61391;SDS011;47261;52.892;5.738;2022-08-21T15:34:42;8.55;;;1.95;;
61391;SDS011;47261;52.892;5.738;2022-08-21T15:37:08;9.07;;;1.80;;
61391;SDS011;47261;52.892;5.738;2022-08-21T15:39:34;8.73;;;1.30;;
61391;SDS011;47261;52.892;5.738;2022-08-21T15:42:00;10.68;;;2.20;;
61391;SDS011;47261;52.892;5.738;2022-08-21T15:44:27;8.27;;;1.17;;
61391;SDS011;47261;52.892;5.738;2022-08-21T15:46:54;9.53;;;2.20;;
61391;SDS011;47261;52.892;5.738;2022-08-21T15:49:20;7.18;;;1.17;;
61391;SDS011;47261;52.892;5.738;2022-08-21T15:51:46;8.77;;;1.45;;
61391;SDS011;47261;52.892;5.738;2022-08-21T15:54:12;10.37;;;1.50;;
61391;SDS011;47261;52.892;5.738;2022-08-21T15:56:38;8.73;;;1.23;;
61391;SDS011;47261;52.892;5.738;2022-08-21T15:59:12;8.05;;;1.27;;
61391;SDS011;47261;52.892;5.738;2022-08-21T16:01:46;10.80;;;1.30;;
61391;SDS011;47261;52.892;5.738;2022-08-21T16:04:15;10.23;;;1.50;;
61391;SDS011;47261;52.892;5.738;2022-08-21T16:06:48;6.78;;;1.35;;
61391;SDS011;47261;52.892;5.738;2022-08-21T16:09:14;9.35;;;2.00;;
61391;SDS011;47261;52.892;5.738;2022-08-21T16:11:41;6.77;;;1.30;;
61391;SDS011;47261;52.892;5.738;2022-08-21T16:14:07;9.60;;;1.50;;
61391;SDS011;47261;52.892;5.738;2022-08-21T16:16:33;9.70;;;1.60;;
61391;SDS011;47261;52.892;5.738;2022-08-21T16:18:59;10.30;;;1.83;;
61391;SDS011;47261;52.892;5.738;2022-08-21T16:21:27;6.97;;;1.30;;